createdAt,value
2023-05-15T00:00:13.008Z,1013.90
2023-05-15T00:01:12.943Z,1013.89
2023-05-15T00:02:12.926Z,1013.89
2023-05-15T00:03:12.924Z,1013.89
2023-05-15T00:04:12.945Z,1013.86
2023-05-15T00:05:12.759Z,1013.85
2023-05-15T00:06:13.797Z,1013.84
2023-05-15T00:07:13.867Z,1013.83
2023-05-15T00:08:13.988Z,1013.85
2023-05-15T00:09:13.086Z,1013.79
2023-05-15T00:10:13.022Z,1013.80
2023-05-15T00:11:12.906Z,1013.80
2023-05-15T00:12:13.023Z,1013.80
2023-05-15T00:13:12.970Z,1013.81
2023-05-15T00:14:12.913Z,1013.82
2023-05-15T00:15:12.709Z,1013.85
2023-05-15T00:16:13.885Z,1013.84
2023-05-15T00:17:12.868Z,1013.82
2023-05-15T00:18:14.014Z,1013.78
2023-05-15T00:19:13.033Z,1013.83
2023-05-15T00:20:12.848Z,1013.84
2023-05-15T00:21:13.981Z,1013.82
2023-05-15T00:22:12.984Z,1013.81
2023-05-15T00:23:13.088Z,1013.84
2023-05-15T00:24:12.983Z,1013.82
2023-05-15T00:25:12.901Z,1013.79
2023-05-15T00:26:13.067Z,1013.78
2023-05-15T00:27:13.016Z,1013.79
2023-05-15T00:28:13.166Z,1013.77
2023-05-15T00:29:13.245Z,1013.76
2023-05-15T00:30:13.501Z,1013.73
2023-05-15T00:31:13.577Z,1013.71
2023-05-15T00:32:13.574Z,1013.69
2023-05-15T00:33:13.667Z,1013.71
2023-05-15T00:34:13.711Z,1013.70
2023-05-15T00:35:13.684Z,1013.70
2023-05-15T00:36:13.825Z,1013.70
2023-05-15T00:37:13.793Z,1013.67
2023-05-15T00:38:13.803Z,1013.67
2023-05-15T00:39:13.820Z,1013.68
2023-05-15T00:40:13.737Z,1013.66
2023-05-15T00:41:13.757Z,1013.65
2023-05-15T00:42:13.563Z,1013.65
2023-05-15T00:43:13.603Z,1013.66
2023-05-15T00:44:13.651Z,1013.62
2023-05-15T00:45:13.732Z,1013.64
2023-05-15T00:46:13.963Z,1013.64
2023-05-15T00:47:13.119Z,1013.61
2023-05-15T00:48:13.222Z,1013.65
2023-05-15T00:49:13.426Z,1013.61
2023-05-15T00:50:13.564Z,1013.59
2023-05-15T00:51:13.490Z,1013.60
2023-05-15T00:52:13.763Z,1013.60
2023-05-15T00:53:13.996Z,1013.59
2023-05-15T00:54:13.644Z,1013.59
2023-05-15T00:55:13.590Z,1013.60
2023-05-15T00:56:13.598Z,1013.59
2023-05-15T00:57:13.439Z,1013.58
2023-05-15T00:58:13.440Z,1013.59
2023-05-15T00:59:13.296Z,1013.56
2023-05-15T01:00:13.435Z,1013.60
2023-05-15T01:01:13.610Z,1013.62
2023-05-15T01:02:13.604Z,1013.60
2023-05-15T01:03:14.150Z,1013.61
2023-05-15T01:04:13.155Z,1013.61
2023-05-15T01:05:13.049Z,1013.59
2023-05-15T01:06:13.150Z,1013.56
2023-05-15T01:07:13.152Z,1013.55
2023-05-15T01:08:13.337Z,1013.55
2023-05-15T01:09:13.155Z,1013.54
2023-05-15T01:10:13.157Z,1013.53
2023-05-15T01:11:12.972Z,1013.55
2023-05-15T01:12:12.894Z,1013.52
2023-05-15T01:13:13.094Z,1013.53
2023-05-15T01:14:13.110Z,1013.52
2023-05-15T01:15:13.130Z,1013.49
2023-05-15T01:16:13.219Z,1013.52
2023-05-15T01:17:13.094Z,1013.50
2023-05-15T01:18:12.922Z,1013.49
2023-05-15T01:19:13.304Z,1013.50
2023-05-15T01:20:13.625Z,1013.52
2023-05-15T01:21:13.724Z,1013.52
2023-05-15T01:22:13.550Z,1013.53
2023-05-15T01:23:13.433Z,1013.53
2023-05-15T01:24:13.748Z,1013.52
2023-05-15T01:25:13.713Z,1013.53
2023-05-15T01:26:13.771Z,1013.52
2023-05-15T01:27:13.651Z,1013.50
2023-05-15T01:28:13.541Z,1013.50
2023-05-15T01:29:13.607Z,1013.54
2023-05-15T01:30:13.666Z,1013.53
2023-05-15T01:31:13.879Z,1013.50
2023-05-15T01:32:13.952Z,1013.51
2023-05-15T01:33:13.115Z,1013.51
2023-05-15T01:34:12.914Z,1013.50
2023-05-15T01:35:13.111Z,1013.49
2023-05-15T01:36:13.023Z,1013.46
2023-05-15T01:37:13.083Z,1013.47
2023-05-15T01:38:12.973Z,1013.47
2023-05-15T01:39:13.018Z,1013.51
2023-05-15T01:40:12.985Z,1013.50
2023-05-15T01:41:13.019Z,1013.48
2023-05-15T01:42:13.153Z,1013.50
2023-05-15T01:43:13.348Z,1013.51
2023-05-15T01:44:13.506Z,1013.55
2023-05-15T01:45:13.273Z,1013.52
2023-05-15T01:46:13.384Z,1013.51
2023-05-15T01:47:13.405Z,1013.49
2023-05-15T01:48:13.398Z,1013.47
2023-05-15T01:49:13.319Z,1013.45
2023-05-15T01:50:13.087Z,1013.43
2023-05-15T01:51:13.362Z,1013.40
2023-05-15T01:52:13.249Z,1013.38
2023-05-15T01:53:13.172Z,1013.38
2023-05-15T01:54:13.138Z,1013.38
2023-05-15T01:55:13.094Z,1013.45
2023-05-15T01:56:12.877Z,1013.43
2023-05-15T01:57:13.214Z,1013.42
2023-05-15T01:58:13.052Z,1013.44
2023-05-15T01:59:12.982Z,1013.43
2023-05-15T02:00:13.048Z,1013.43
2023-05-15T02:01:12.822Z,1013.46
2023-05-15T02:02:13.820Z,1013.42
2023-05-15T02:03:13.993Z,1013.44
2023-05-15T02:04:13.151Z,1013.43
2023-05-15T02:05:13.072Z,1013.45
2023-05-15T02:06:13.032Z,1013.43
2023-05-15T02:07:13.277Z,1013.47
2023-05-15T02:08:13.235Z,1013.48
2023-05-15T02:09:13.395Z,1013.45
2023-05-15T02:10:13.329Z,1013.44
2023-05-15T02:11:13.331Z,1013.43
2023-05-15T02:12:13.077Z,1013.44
2023-05-15T02:13:12.989Z,1013.44
2023-05-15T02:14:13.098Z,1013.43
2023-05-15T02:15:18.197Z,1013.40
2023-05-15T02:16:13.110Z,1013.41
2023-05-15T02:17:13.232Z,1013.42
2023-05-15T02:18:13.040Z,1013.39
2023-05-15T02:19:13.071Z,1013.36
2023-05-15T02:20:13.030Z,1013.36
2023-05-15T02:21:13.180Z,1013.35
2023-05-15T02:22:13.345Z,1013.33
2023-05-15T02:23:13.271Z,1013.28
2023-05-15T02:24:13.284Z,1013.28
2023-05-15T02:25:13.511Z,1013.31
2023-05-15T02:26:13.613Z,1013.26
2023-05-15T02:27:13.473Z,1013.28
2023-05-15T02:28:13.352Z,1013.26
2023-05-15T02:29:13.641Z,1013.27
2023-05-15T02:30:13.575Z,1013.29
2023-05-15T02:31:13.726Z,1013.30
2023-05-15T02:32:14.132Z,1013.29
2023-05-15T02:33:13.072Z,1013.31
2023-05-15T02:34:12.897Z,1013.32
2023-05-15T02:35:12.951Z,1013.34
2023-05-15T02:36:12.970Z,1013.34
2023-05-15T02:37:12.970Z,1013.35
2023-05-15T02:38:12.864Z,1013.33
2023-05-15T02:39:13.787Z,1013.33
2023-05-15T02:40:13.823Z,1013.34
2023-05-15T02:41:13.720Z,1013.33
2023-05-15T02:42:14.090Z,1013.36
2023-05-15T02:43:13.244Z,1013.32
2023-05-15T02:44:13.221Z,1013.33
2023-05-15T02:45:13.243Z,1013.32
2023-05-15T02:46:13.203Z,1013.34
2023-05-15T02:47:13.005Z,1013.35
2023-05-15T02:48:12.906Z,1013.35
2023-05-15T02:49:12.990Z,1013.36
2023-05-15T02:50:12.843Z,1013.39
2023-05-15T02:51:13.829Z,1013.37
2023-05-15T02:52:13.670Z,1013.30
2023-05-15T02:53:13.596Z,1013.32
2023-05-15T02:54:13.588Z,1013.34
2023-05-15T02:55:13.582Z,1013.33
2023-05-15T02:56:13.804Z,1013.38
2023-05-15T02:57:13.890Z,1013.39
2023-05-15T02:58:12.986Z,1013.33
2023-05-15T02:59:12.890Z,1013.34
2023-05-15T03:00:12.864Z,1013.30
2023-05-15T03:01:14.749Z,1013.34
2023-05-15T03:02:13.454Z,1013.30
2023-05-15T03:03:13.698Z,1013.30
2023-05-15T03:04:13.523Z,1013.28
2023-05-15T03:05:13.551Z,1013.29
2023-05-15T03:06:13.769Z,1013.25
2023-05-15T03:07:13.879Z,1013.27
2023-05-15T03:08:13.768Z,1013.25
2023-05-15T03:09:13.585Z,1013.27
2023-05-15T03:10:13.677Z,1013.22
2023-05-15T03:11:14.326Z,1013.28
2023-05-15T03:12:13.459Z,1013.26
2023-05-15T03:13:13.552Z,1013.24
2023-05-15T03:14:13.616Z,1013.25
2023-05-15T03:15:13.533Z,1013.25
2023-05-15T03:16:13.613Z,1013.28
2023-05-15T03:17:13.675Z,1013.32
2023-05-15T03:18:14.432Z,1013.36
2023-05-15T03:19:13.636Z,1013.34
2023-05-15T03:20:13.721Z,1013.34
2023-05-15T03:21:13.777Z,1013.29
2023-05-15T03:22:14.036Z,1013.28
2023-05-15T03:23:12.905Z,1013.25
2023-05-15T03:24:12.880Z,1013.24
2023-05-15T03:25:12.804Z,1013.22
2023-05-15T03:26:13.662Z,1013.31
2023-05-15T03:27:13.692Z,1013.35
2023-05-15T03:28:13.741Z,1013.37
2023-05-15T03:29:13.991Z,1013.42
2023-05-15T03:30:12.913Z,1013.42
2023-05-15T03:31:12.954Z,1013.40
2023-05-15T03:32:12.878Z,1013.38
2023-05-15T03:33:12.732Z,1013.34
2023-05-15T03:34:13.651Z,1013.30
2023-05-15T03:35:13.448Z,1013.35
2023-05-15T03:36:13.683Z,1013.36
2023-05-15T03:37:13.406Z,1013.44
2023-05-15T03:38:13.378Z,1013.45
2023-05-15T03:39:13.479Z,1013.43
2023-05-15T03:40:13.563Z,1013.41
2023-05-15T03:41:13.596Z,1013.39
2023-05-15T03:42:13.301Z,1013.39
2023-05-15T03:43:13.208Z,1013.40
2023-05-15T03:44:13.207Z,1013.39
2023-05-15T03:45:13.232Z,1013.37
2023-05-15T03:46:13.207Z,1013.39
2023-05-15T03:47:13.024Z,1013.37
2023-05-15T03:48:12.816Z,1013.39
2023-05-15T03:49:13.774Z,1013.40
2023-05-15T03:50:13.765Z,1013.40
2023-05-15T03:51:14.157Z,1013.45
2023-05-15T03:52:13.049Z,1013.45
2023-05-15T03:53:14.188Z,1013.46
2023-05-15T03:54:13.073Z,1013.42
2023-05-15T03:55:13.207Z,1013.44
2023-05-15T03:56:13.136Z,1013.38
2023-05-15T03:57:13.050Z,1013.40
2023-05-15T03:58:13.009Z,1013.39
2023-05-15T03:59:12.759Z,1013.44
2023-05-15T04:00:13.666Z,1013.44
2023-05-15T04:01:13.709Z,1013.47
2023-05-15T04:02:13.685Z,1013.49
2023-05-15T04:03:13.529Z,1013.47
2023-05-15T04:04:13.583Z,1013.49
2023-05-15T04:05:13.623Z,1013.45
2023-05-15T04:06:13.575Z,1013.50
2023-05-15T04:07:13.602Z,1013.47
2023-05-15T04:08:13.670Z,1013.48
2023-05-15T04:09:13.409Z,1013.48
2023-05-15T04:10:13.337Z,1013.50
2023-05-15T04:11:13.376Z,1013.56
2023-05-15T04:12:13.420Z,1013.52
2023-05-15T04:13:13.198Z,1013.53
2023-05-15T04:14:13.019Z,1013.50
2023-05-15T04:15:12.826Z,1013.54
2023-05-15T04:16:13.889Z,1013.59
2023-05-15T04:17:13.020Z,1013.51
2023-05-15T04:18:12.940Z,1013.53
2023-05-15T04:19:12.970Z,1013.53
2023-05-15T04:20:12.794Z,1013.53
2023-05-15T04:21:13.989Z,1013.52
2023-05-15T04:22:12.889Z,1013.54
2023-05-15T04:23:13.968Z,1013.53
2023-05-15T04:24:13.583Z,1013.52
2023-05-15T04:25:13.736Z,1013.53
2023-05-15T04:26:13.676Z,1013.53
2023-05-15T04:27:13.666Z,1013.55
2023-05-15T04:28:13.552Z,1013.52
2023-05-15T04:29:13.423Z,1013.48
2023-05-15T04:30:13.285Z,1013.50
2023-05-15T04:31:13.267Z,1013.50
2023-05-15T04:32:13.261Z,1013.52
2023-05-15T04:33:13.335Z,1013.54
2023-05-15T04:34:13.431Z,1013.56
2023-05-15T04:35:13.340Z,1013.58
2023-05-15T04:36:13.663Z,1013.55
2023-05-15T04:37:13.813Z,1013.54
2023-05-15T04:38:13.779Z,1013.55
2023-05-15T04:39:13.696Z,1013.56
2023-05-15T04:40:13.628Z,1013.51
2023-05-15T04:41:13.540Z,1013.50
2023-05-15T04:42:13.497Z,1013.46
2023-05-15T04:43:13.567Z,1013.46
2023-05-15T04:44:13.872Z,1013.48
2023-05-15T04:45:13.809Z,1013.49
2023-05-15T04:46:13.701Z,1013.52
2023-05-15T04:47:13.695Z,1013.49
2023-05-15T04:48:13.697Z,1013.49
2023-05-15T04:49:13.654Z,1013.46
2023-05-15T04:50:13.573Z,1013.48
2023-05-15T04:51:13.664Z,1013.51
2023-05-15T04:52:13.446Z,1013.49
2023-05-15T04:53:13.653Z,1013.48
2023-05-15T04:54:13.541Z,1013.48
2023-05-15T04:55:13.752Z,1013.45
2023-05-15T04:56:13.584Z,1013.49
2023-05-15T04:57:13.698Z,1013.52
2023-05-15T04:58:13.529Z,1013.51
2023-05-15T04:59:13.669Z,1013.53
2023-05-15T05:00:13.679Z,1013.49
2023-05-15T05:01:13.797Z,1256.95
2023-05-15T05:02:13.829Z,1567.44
2023-05-15T05:03:13.825Z,1291.23
2023-05-15T05:04:13.923Z,1244.42
2023-05-15T05:05:13.054Z,1275.80
2023-05-15T05:06:13.047Z,1265.64
2023-05-15T05:07:13.049Z,1259.06
2023-05-15T05:08:13.087Z,1118.03
2023-05-15T05:09:13.621Z,1153.44
2023-05-15T05:10:13.491Z,1111.87
2023-05-15T05:11:13.620Z,1092.59
2023-05-15T05:12:13.666Z,1030.53
2023-05-15T05:13:13.699Z,1091.94
2023-05-15T05:14:13.559Z,1015.97
2023-05-15T05:15:14.278Z,1040.29
2023-05-15T05:16:13.336Z,1092.96
2023-05-15T05:17:13.767Z,1272.15
2023-05-15T05:18:13.875Z,1297.57
2023-05-15T05:20:13.673Z,1075.43
2023-05-15T05:21:13.666Z,1029.32
2023-05-15T05:22:13.922Z,1119.55
2023-05-15T05:23:13.660Z,1110.69
2023-05-15T05:24:13.389Z,1212.21
2023-05-15T05:25:13.234Z,1162.73
2023-05-15T05:26:13.258Z,1156.43
2023-05-15T05:27:13.254Z,1194.50
2023-05-15T05:28:13.046Z,1179.94
2023-05-15T05:29:12.927Z,1049.24
2023-05-15T05:30:13.068Z,1101.30
2023-05-15T05:31:12.996Z,1255.34
2023-05-15T05:32:12.959Z,1310.04
2023-05-15T05:33:12.962Z,1345.52
2023-05-15T05:34:12.751Z,1403.74
2023-05-15T05:35:13.924Z,1320.77
2023-05-15T05:36:13.008Z,1267.13
2023-05-15T05:37:13.061Z,1472.62
2023-05-15T05:38:13.069Z,1566.53
2023-05-15T05:39:12.951Z,1550.43
2023-05-15T05:40:12.859Z,1566.61
2023-05-15T05:41:13.766Z,1459.20
2023-05-15T05:42:18.777Z,1459.29
2023-05-15T05:43:13.671Z,1458.28
2023-05-15T05:44:13.736Z,1566.18
2023-05-15T05:45:17.657Z,1426.42
2023-05-15T05:46:13.633Z,1466.18
2023-05-15T05:47:13.670Z,1491.61
2023-05-15T05:48:14.485Z,1534.25
2023-05-15T05:49:13.287Z,1480.18
2023-05-15T05:50:13.206Z,1480.65
2023-05-15T05:51:13.207Z,1439.15
2023-05-15T05:52:13.496Z,1566.51
2023-05-15T05:53:13.365Z,1565.62
2023-05-15T05:54:13.570Z,1566.63
2023-05-15T05:55:13.433Z,1565.64
2023-05-15T05:56:13.421Z,1560.82
2023-05-15T05:57:13.538Z,1564.80
2023-05-15T05:58:21.691Z,1531.75
2023-05-15T05:59:13.098Z,1560.46
2023-05-15T06:00:12.883Z,1566.32
2023-05-15T06:01:13.910Z,1565.07
2023-05-15T06:02:12.932Z,1566.41
2023-05-15T06:03:12.916Z,1565.10
2023-05-15T06:04:12.861Z,1552.72
2023-05-15T06:05:13.004Z,1439.25
2023-05-15T06:06:12.701Z,1533.26
2023-05-15T06:07:13.688Z,1566.00
2023-05-15T06:08:13.680Z,1565.42
2023-05-15T06:09:13.713Z,1564.70
2023-05-15T06:10:13.772Z,1564.74
2023-05-15T06:11:13.755Z,1514.10
2023-05-15T06:12:13.687Z,1565.06
2023-05-15T06:13:13.739Z,1564.59
2023-05-15T06:14:13.707Z,1473.90
2023-05-15T06:15:13.520Z,1420.93
2023-05-15T06:16:13.286Z,1485.47
2023-05-15T06:17:13.248Z,1565.54
2023-05-15T06:18:13.789Z,1566.75
2023-05-15T06:19:13.980Z,1566.84
2023-05-15T06:20:12.978Z,1566.16
2023-05-15T06:21:12.841Z,1565.46
2023-05-15T06:22:13.796Z,1565.47
2023-05-15T06:23:14.032Z,1562.52
2023-05-15T06:24:12.985Z,1564.72
2023-05-15T06:25:13.113Z,1431.28
2023-05-15T06:26:12.965Z,1489.44
2023-05-15T06:27:13.070Z,1513.37
2023-05-15T06:28:13.001Z,1564.05
2023-05-15T06:29:12.951Z,1538.69
2023-05-15T06:30:12.904Z,1565.37
2023-05-15T06:31:12.887Z,1565.18
2023-05-15T06:32:12.769Z,1565.32
2023-05-15T06:33:13.985Z,1564.12
2023-05-15T06:34:13.300Z,1565.62
2023-05-15T06:35:13.497Z,1565.20
2023-05-15T06:36:13.960Z,1564.49
2023-05-15T06:37:13.219Z,1530.77
2023-05-15T06:38:13.014Z,1564.93
2023-05-15T06:39:12.970Z,1566.25
2023-05-15T06:40:13.138Z,1567.30
2023-05-15T06:41:12.955Z,1567.24
2023-05-15T06:42:12.961Z,1566.33
2023-05-15T06:43:12.864Z,1565.82
2023-05-15T06:44:13.634Z,1566.78
2023-05-15T06:45:13.561Z,1567.77
2023-05-15T06:46:13.620Z,1566.92
2023-05-15T06:47:13.902Z,1565.71
2023-05-15T06:48:12.963Z,1566.07
2023-05-15T06:49:12.871Z,1566.44
2023-05-15T06:50:13.880Z,1567.21
2023-05-15T06:51:13.824Z,1566.74
2023-05-15T06:52:13.757Z,1566.00
2023-05-15T06:53:14.518Z,1567.86
2023-05-15T06:54:13.658Z,1567.99
2023-05-15T06:55:13.517Z,1568.16
2023-05-15T06:56:13.690Z,1567.63
2023-05-15T06:57:14.022Z,1567.76
2023-05-15T06:58:12.977Z,1567.05
2023-05-15T06:59:13.113Z,1566.39
2023-05-15T07:00:48.204Z,1567.88
2023-05-15T07:01:01.404Z,1567.86
2023-05-15T07:01:13.078Z,1567.80
2023-05-15T07:02:13.268Z,1568.08
2023-05-15T07:03:13.493Z,1567.78
2023-05-15T07:04:13.524Z,1567.35
2023-05-15T07:05:13.792Z,1568.95
2023-05-15T07:06:13.875Z,1567.83
2023-05-15T07:07:13.674Z,1569.94
2023-05-15T07:08:13.532Z,1569.35
2023-05-15T07:09:13.681Z,1568.74
2023-05-15T07:10:13.603Z,1568.23
2023-05-15T07:11:13.700Z,1569.74
2023-05-15T07:12:13.529Z,1568.43
2023-05-15T07:13:13.301Z,1569.38
2023-05-15T07:14:13.316Z,1569.53
2023-05-15T07:15:13.152Z,1569.63
2023-05-15T07:16:13.060Z,1570.48
2023-05-15T07:17:12.905Z,1568.25
2023-05-15T07:18:14.260Z,1567.76
2023-05-15T07:19:13.333Z,1569.09
2023-05-15T07:20:13.326Z,1569.10
2023-05-15T07:21:13.257Z,1570.02
2023-05-15T07:22:13.055Z,1568.96
2023-05-15T07:23:13.057Z,1570.24
2023-05-15T07:24:13.216Z,1569.91
2023-05-15T07:25:15.554Z,1568.45
2023-05-15T07:26:16.905Z,1569.02
2023-05-15T07:27:13.382Z,1567.96
2023-05-15T07:28:13.188Z,1569.34
2023-05-15T07:29:12.995Z,1569.47
2023-05-15T07:30:12.895Z,1569.76
2023-05-15T07:31:14.004Z,1569.83
2023-05-15T07:32:12.807Z,1568.09
2023-05-15T07:33:13.751Z,1568.20
2023-05-15T07:34:13.776Z,1568.33
2023-05-15T07:35:13.754Z,1568.62
2023-05-15T07:36:13.574Z,1570.08
2023-05-15T07:37:14.871Z,1571.18
2023-05-15T07:38:13.109Z,1570.53
2023-05-15T07:39:13.205Z,1568.52
2023-05-15T07:40:13.591Z,1568.60
2023-05-15T07:41:13.549Z,1567.66
2023-05-15T07:42:13.691Z,1568.21
2023-05-15T07:43:13.938Z,1568.52
2023-05-15T07:44:13.059Z,1568.65
2023-05-15T07:45:12.992Z,1569.44
2023-05-15T07:46:13.177Z,1569.34
2023-05-15T07:47:13.363Z,1569.26
2023-05-15T07:48:13.375Z,1568.87
2023-05-15T07:49:13.411Z,1569.24
2023-05-15T07:50:13.317Z,1568.65
2023-05-15T07:51:13.528Z,1569.49
2023-05-15T07:52:13.448Z,1569.52
2023-05-15T07:53:13.404Z,1568.76
2023-05-15T07:54:13.364Z,1568.90
2023-05-15T07:55:13.234Z,1568.14
2023-05-15T07:56:13.127Z,1569.37
2023-05-15T07:57:13.070Z,1568.52
2023-05-15T07:58:13.140Z,1569.49
2023-05-15T07:59:13.163Z,1570.32
2023-05-15T08:00:12.982Z,1569.55
2023-05-15T08:01:12.832Z,1568.26
2023-05-15T08:02:13.631Z,1567.43
2023-05-15T08:03:13.972Z,1568.26
2023-05-15T08:04:12.973Z,1569.16
2023-05-15T08:05:12.873Z,1569.05
2023-05-15T08:06:13.860Z,1570.56
2023-05-15T08:07:13.663Z,1571.51
2023-05-15T08:08:13.471Z,1570.30
2023-05-15T08:09:13.295Z,1570.90
2023-05-15T08:10:13.084Z,1571.37
2023-05-15T08:11:13.781Z,1568.60
2023-05-15T08:12:13.602Z,1568.88
2023-05-15T08:13:13.585Z,1567.75
2023-05-15T08:14:13.899Z,1566.83
2023-05-15T08:15:12.922Z,1568.10
2023-05-15T08:16:13.130Z,1568.30
2023-05-15T08:17:13.793Z,1568.79
2023-05-15T08:18:13.613Z,1570.68
2023-05-15T08:19:13.643Z,1569.67
2023-05-15T08:20:13.542Z,1571.03
2023-05-15T08:21:13.723Z,1571.43
2023-05-15T08:22:13.710Z,1570.00
2023-05-15T08:23:13.544Z,1569.19
2023-05-15T08:24:13.332Z,1570.42
2023-05-15T08:25:13.300Z,1571.10
2023-05-15T08:26:13.140Z,1572.39
2023-05-15T08:27:12.983Z,1569.37
2023-05-15T08:28:12.912Z,1569.88
2023-05-15T08:29:13.206Z,1569.44
2023-05-15T08:30:13.446Z,1569.47
2023-05-15T08:31:13.253Z,1570.48
2023-05-15T08:32:13.298Z,1568.71
2023-05-15T08:33:13.132Z,1570.05
2023-05-15T08:34:13.057Z,1570.74
2023-05-15T08:35:12.960Z,1571.50
2023-05-15T08:36:12.997Z,1571.37
2023-05-15T08:37:12.951Z,1572.42
2023-05-15T08:38:12.764Z,1572.29
2023-05-15T08:39:13.556Z,1570.69
2023-05-15T08:40:13.427Z,1570.38
2023-05-15T08:41:13.348Z,1569.00
2023-05-15T08:42:13.561Z,1568.04
2023-05-15T08:43:13.723Z,1568.80
2023-05-15T08:44:13.647Z,1570.70
2023-05-15T08:45:13.618Z,1569.73
2023-05-15T08:46:13.840Z,1569.95
2023-05-15T08:47:13.720Z,1569.98
2023-05-15T08:48:13.612Z,1569.31
2023-05-15T08:49:13.875Z,1569.10
2023-05-15T08:50:12.770Z,1569.84
2023-05-15T08:51:13.895Z,1570.63
2023-05-15T08:52:12.729Z,1570.30
2023-05-15T08:53:13.605Z,1570.03
2023-05-15T08:54:13.634Z,1571.06
2023-05-15T08:55:13.785Z,1570.56
2023-05-15T08:56:13.666Z,1571.43
2023-05-15T08:57:13.611Z,1571.37
2023-05-15T08:58:13.433Z,1568.59
2023-05-15T08:59:13.289Z,1568.63
2023-05-15T09:00:13.150Z,1569.15
2023-05-15T09:01:13.563Z,1569.81
2023-05-15T09:02:13.648Z,1569.07
2023-05-15T09:03:13.689Z,1570.52
2023-05-15T09:04:13.732Z,1570.77
2023-05-15T09:05:13.540Z,1570.97
2023-05-15T09:06:13.275Z,1571.66
2023-05-15T09:07:13.371Z,1572.76
2023-05-15T09:08:13.211Z,1572.17
2023-05-15T09:09:13.085Z,1571.62
2023-05-15T09:10:13.190Z,1572.53
2023-05-15T09:11:13.228Z,1573.54
2023-05-15T09:12:13.157Z,1573.92
2023-05-15T09:13:13.465Z,1574.21
2023-05-15T09:14:13.546Z,1575.23
2023-05-15T09:15:18.494Z,1576.34
2023-05-15T09:16:13.367Z,1575.39
2023-05-15T09:17:13.350Z,1574.18
2023-05-15T09:18:13.195Z,1573.19
2023-05-15T09:19:13.317Z,1574.68
2023-05-15T09:20:13.475Z,1577.04
2023-05-15T09:21:13.284Z,1575.02
2023-05-15T09:22:13.465Z,1572.90
2023-05-15T09:23:13.578Z,1574.72
2023-05-15T09:24:13.427Z,1575.08
2023-05-15T09:25:13.230Z,1576.24
2023-05-15T09:26:13.097Z,1576.72
2023-05-15T09:27:13.034Z,1576.88
2023-05-15T09:28:12.974Z,1575.47
2023-05-15T09:29:12.763Z,1577.17
2023-05-15T09:30:13.704Z,1576.75
2023-05-15T09:31:13.819Z,1573.21
2023-05-15T09:32:13.950Z,1575.03
2023-05-15T09:33:13.136Z,1575.64
2023-05-15T09:34:13.026Z,1576.15
2023-05-15T09:35:12.829Z,1578.63
2023-05-15T09:36:13.865Z,1581.39
2023-05-15T09:37:13.710Z,1578.52
2023-05-15T09:38:13.414Z,1578.11
2023-05-15T09:39:13.409Z,1582.02
2023-05-15T09:40:13.289Z,1577.47
2023-05-15T09:41:13.094Z,1576.78
2023-05-15T09:42:12.862Z,1579.56
2023-05-15T09:43:13.725Z,1577.89
2023-05-15T09:44:13.517Z,1575.58
2023-05-15T09:45:13.382Z,1577.29
2023-05-15T09:46:13.571Z,1578.96
2023-05-15T09:47:13.674Z,1581.40
2023-05-15T09:48:13.866Z,1580.72
2023-05-15T09:49:12.878Z,1579.63
2023-05-15T09:50:13.827Z,1581.69
2023-05-15T09:51:13.951Z,1579.39
2023-05-15T09:52:13.020Z,1578.18
2023-05-15T09:53:13.147Z,1578.22
2023-05-15T09:54:13.319Z,1579.09
2023-05-15T09:55:13.868Z,1579.52
2023-05-15T09:56:13.578Z,1576.30
2023-05-15T09:57:13.400Z,1578.76
2023-05-15T09:58:13.162Z,1578.59
2023-05-15T09:59:13.317Z,1581.88
2023-05-15T10:00:14.526Z,1580.51
2023-05-15T10:01:13.673Z,1579.10
2023-05-15T10:02:13.708Z,1580.53
2023-05-15T10:03:13.910Z,1578.25
2023-05-15T10:04:12.923Z,1578.28
2023-05-15T10:05:12.973Z,1578.64
2023-05-15T10:06:12.841Z,1575.70
2023-05-15T10:07:13.072Z,1575.38
2023-05-15T10:08:13.050Z,1577.86
2023-05-15T10:09:13.001Z,1579.19
2023-05-15T10:10:12.785Z,1579.70
2023-05-15T10:11:14.055Z,1579.03
2023-05-15T10:12:13.051Z,1577.88
2023-05-15T10:13:13.152Z,1579.39
2023-05-15T10:14:13.312Z,1577.61
2023-05-15T10:15:13.208Z,1578.02
2023-05-15T10:16:13.656Z,1578.57
2023-05-15T10:17:14.035Z,1578.46
2023-05-15T10:18:13.166Z,1579.11
2023-05-15T10:19:12.952Z,1577.52
2023-05-15T10:20:13.178Z,1577.37
2023-05-15T10:21:12.940Z,1578.79
2023-05-15T10:22:12.645Z,1576.93
2023-05-15T10:23:13.441Z,1577.55
2023-05-15T10:24:13.308Z,1578.09
2023-05-15T10:25:13.219Z,1578.50
2023-05-15T10:26:13.155Z,1577.09
2023-05-15T10:27:13.315Z,1578.86
2023-05-15T10:28:13.286Z,1578.19
2023-05-15T10:29:13.196Z,1582.17
2023-05-15T10:30:13.160Z,1583.26
2023-05-15T10:31:13.370Z,1580.93
2023-05-15T10:32:13.300Z,1580.87
2023-05-15T10:33:13.383Z,1580.79
2023-05-15T10:34:13.349Z,1581.29
2023-05-15T10:35:14.179Z,1580.81
2023-05-15T10:36:12.990Z,1580.89
2023-05-15T10:37:12.818Z,1581.84
2023-05-15T10:38:18.700Z,1584.82
2023-05-15T10:39:13.475Z,1586.15
2023-05-15T10:40:13.207Z,1585.96
2023-05-15T10:41:17.770Z,1585.56
2023-05-15T10:42:13.306Z,1582.45
2023-05-15T10:43:13.274Z,1578.83
2023-05-15T10:44:13.263Z,1577.47
2023-05-15T10:45:13.125Z,1578.08
2023-05-15T10:46:13.513Z,1578.49
2023-05-15T10:47:13.381Z,1579.47
2023-05-15T10:48:13.663Z,1580.49
2023-05-15T10:49:13.842Z,1582.28
2023-05-15T10:50:13.886Z,1581.83
2023-05-15T10:51:13.913Z,1581.27
2023-05-15T10:52:12.816Z,1582.15
2023-05-15T10:53:13.937Z,1583.88
2023-05-15T10:54:12.800Z,1587.00
2023-05-15T10:55:13.688Z,1584.78
2023-05-15T10:56:13.772Z,1582.99
2023-05-15T10:57:14.519Z,1583.70
2023-05-15T10:58:13.261Z,1582.38
2023-05-15T10:59:13.541Z,1581.80
2023-05-15T11:00:13.481Z,1581.71
2023-05-15T11:01:13.383Z,1584.16
2023-05-15T11:02:13.303Z,1584.54
2023-05-15T11:03:13.268Z,1580.52
2023-05-15T11:04:13.332Z,1581.86
2023-05-15T11:05:13.165Z,1580.81
2023-05-15T11:06:12.967Z,1579.38
2023-05-15T11:07:13.069Z,1583.36
2023-05-15T11:08:12.943Z,1582.43
2023-05-15T11:09:12.759Z,1582.47
2023-05-15T11:10:13.595Z,1582.50
2023-05-15T11:11:13.623Z,1583.84
2023-05-15T11:12:13.756Z,1586.12
2023-05-15T11:13:13.783Z,1585.90
2023-05-15T11:14:13.579Z,1586.18
2023-05-15T11:15:13.452Z,1586.51
2023-05-15T11:16:14.163Z,1587.35
2023-05-15T11:17:13.301Z,1587.17
2023-05-15T11:18:13.472Z,1586.50
2023-05-15T11:19:13.327Z,1585.89
2023-05-15T11:20:13.528Z,1579.34
2023-05-15T11:21:13.369Z,1580.70
2023-05-15T11:22:13.117Z,1583.57
2023-05-15T11:23:13.711Z,1584.36
2023-05-15T11:24:13.528Z,1584.56
2023-05-15T11:25:13.753Z,1582.22
2023-05-15T11:26:13.538Z,1582.84
2023-05-15T11:27:13.283Z,1587.00
2023-05-15T11:28:13.422Z,1585.18
2023-05-15T11:29:13.524Z,1586.11
2023-05-15T11:30:13.757Z,1586.16
2023-05-15T11:31:13.634Z,1585.37
2023-05-15T11:32:13.932Z,1586.23
2023-05-15T11:33:12.864Z,1586.10
2023-05-15T11:34:12.825Z,1585.51
2023-05-15T11:35:13.618Z,1585.22
2023-05-15T11:36:13.655Z,1582.74
2023-05-15T11:37:13.669Z,1582.63
2023-05-15T11:38:13.697Z,1585.70
2023-05-15T11:39:13.692Z,1585.28
2023-05-15T11:40:13.589Z,1586.07
2023-05-15T11:41:13.364Z,1586.69
2023-05-15T11:42:14.420Z,1587.15
2023-05-15T11:43:13.339Z,1582.89
2023-05-15T11:44:13.153Z,1585.10
2023-05-15T11:45:13.063Z,1586.81
2023-05-15T11:46:13.019Z,1585.90
2023-05-15T11:47:12.942Z,1582.67
2023-05-15T11:48:12.934Z,1585.60
2023-05-15T11:49:12.946Z,1586.01
2023-05-15T11:50:12.902Z,1584.78
2023-05-15T11:51:12.992Z,1584.75
2023-05-15T11:52:12.787Z,1584.34
2023-05-15T11:53:13.643Z,1586.28
2023-05-15T11:54:13.593Z,1586.74
2023-05-15T11:55:13.617Z,1584.22
2023-05-15T11:56:13.355Z,1584.91
2023-05-15T11:57:13.276Z,1582.29
2023-05-15T11:58:13.320Z,1584.02
2023-05-15T11:59:13.188Z,1583.12
2023-05-15T12:00:13.217Z,1584.96
2023-05-15T12:01:13.457Z,1583.06
2023-05-15T12:02:13.295Z,1584.38
2023-05-15T12:03:13.365Z,1582.56
2023-05-15T12:04:13.663Z,1583.14
2023-05-15T12:05:13.935Z,1582.34